메인 페이지
METAR-TAF:

METAR-TAF

공항 :

바라나시, 인도

위도: 25-27N, 경도: 082-52E, 고도: 81m

현재 날씨관측

5kt
온도 23°C
습도 38%
기압 1018 hPa
시정: 3500m
연무

METAR: VEBN 15100Z 28005KT 3500 HZ NSC 23/08 Q1018 NOSIG

시각: 16:09 (10:39 UTC)

예보

예보는 5 시간 39분 전, 05:00시(UTC)에 발표되었습니다.
예보 대상 시간: 15일 06시부터 16일 12시까지 (UTC)
서남서5kt
시정: 2500m
연무
전환 중
15일 08시부터 15일 10시까지 (UTC)
시정: 3500m
연무
전환 중
15일 13시부터 15일 15시까지 (UTC)
여러 방향의 바람 2kt
시정: 2000m
고도 10000ft 상공 구름 조금
박무, 연무
전환 중
16일 00시부터 16일 02시까지 (UTC)
시정: 1000m
낮은 안개, 박무
전환 중
16일 03시부터 16일 05시까지 (UTC)
5kt
시정: 2000m
연무
전환 중
16일 07시부터 16일 09시까지 (UTC)
시정: 3000m
연무

TAF: VEBN 150500Z 1506/1612 25005KT 2500 HZ NSC BECMG 1508/1510 3500 HZ BECMG 1513/1515 VRB02KT 2000 BR HZ FEW100 BECMG 1600/1602 1000 MIFG BR BECMG 1603/1605 27005KT 2000 HZ BECMG 1607/1609 3000 HZ

4,000개 이상의 공항 관측 자료 및 예보 (METAR 및 TAF 보고).

지도상에서 검색 가능한 기상관측소가 노란 점과 빨간 점으로 표시되어 있습니다.

기상관측소 명을 보려면 표시 위로 마우스를 이동하세요.

날씨 관측과 예보를 보려면 클릭하세요.

지도 변경 : 확대하려면 엑스 표시가 있는 녹색 버튼, 축소하려면 빼기 표시가 있는 녹색 버튼, 다음 페이지의 지도를 보려면 녹색 화살표를 클릭하세요.


METAR-TAF: